Pomona, Missouri
Current Conditions -  °F | °C
As of 10:53 PM on Friday 24 Oct 2014 (Local Time) from KUNO Reporting Station
Clear Clear  
Wind Chill: 62°   Ceiling: Unl
Heat Index: 62°   Visibility: 10mi
Dew Point: 56°   Wind: 7mph
Humidity: 80%   Direction: 210°SSW
Pressure: 30.08"   Gusts: NA
Location:  36.87°N, 91.91°W
Report Text: KUNO 250353Z AUTO 21006KT 10SM CLR 17/13 A3008 RMK AO2 SLP181 T01670133
Loading
Personal Weather Stations






























Interactive Weather Map
Tropical Storm Tracking
New forecast layout! Learn more

10-Day Weather Forecast

Advertisements
Track Severe Weather on mobile